createdAt,value
2018-06-29T00:01:08.022Z,99.99
2018-06-29T00:02:07.953Z,99.99
2018-06-29T00:03:08.177Z,99.99
2018-06-29T00:04:07.935Z,99.99
2018-06-29T00:05:08.223Z,99.99
2018-06-29T00:07:08.038Z,99.99
2018-06-29T00:08:07.977Z,99.99
2018-06-29T00:10:08.064Z,99.99
2018-06-29T00:11:07.837Z,99.99
2018-06-29T00:12:07.821Z,99.99
2018-06-29T00:13:07.867Z,99.99
2018-06-29T00:16:07.769Z,99.99
2018-06-29T00:17:07.756Z,99.99
2018-06-29T00:19:07.782Z,99.99
2018-06-29T00:20:07.716Z,99.99
2018-06-29T00:21:07.740Z,99.99
2018-06-29T00:22:07.681Z,99.99
2018-06-29T00:23:07.668Z,99.99
2018-06-29T00:25:07.697Z,99.99
2018-06-29T00:26:07.652Z,99.99
2018-06-29T00:27:07.616Z,99.99
2018-06-29T00:28:07.598Z,99.99
2018-06-29T00:29:07.688Z,99.99
2018-06-29T00:30:07.580Z,99.99
2018-06-29T00:32:07.612Z,99.99
2018-06-29T00:33:07.637Z,99.99
2018-06-29T00:36:07.785Z,99.99
2018-06-29T00:37:07.476Z,99.99
2018-06-29T00:38:07.507Z,99.99
2018-06-29T00:39:07.442Z,99.99
2018-06-29T00:40:07.433Z,99.99
2018-06-29T00:41:07.612Z,99.96
2018-06-29T00:42:07.405Z,99.86
2018-06-29T00:43:07.393Z,99.57
2018-06-29T00:44:07.423Z,99.33
2018-06-29T00:45:07.368Z,99.24
2018-06-29T00:46:07.348Z,99.04
2018-06-29T00:47:07.344Z,99.52
2018-06-29T00:48:07.316Z,99.33
2018-06-29T00:49:07.305Z,99.86
2018-06-29T00:50:07.335Z,99.33
2018-06-29T00:52:07.261Z,99.96
2018-06-29T00:53:07.245Z,99.76
2018-06-29T00:54:07.234Z,99.43
2018-06-29T00:56:07.263Z,98.75
2018-06-29T00:58:07.169Z,98.66
2018-06-29T00:59:07.162Z,97.99
2018-06-29T01:01:07.129Z,97.28
2018-06-29T01:02:07.186Z,97.37
2018-06-29T01:03:07.100Z,97.18
2018-06-29T01:05:07.375Z,96.80
2018-06-29T01:06:07.056Z,96.51
2018-06-29T01:07:07.042Z,96.99
2018-06-29T01:08:07.095Z,96.46
2018-06-29T01:09:07.012Z,96.22
2018-06-29T01:11:07.287Z,96.22
2018-06-29T01:13:06.953Z,96.03
2018-06-29T01:14:06.987Z,96.80
2018-06-29T01:15:06.924Z,97.08
2018-06-29T01:16:06.941Z,98.23
2018-06-29T01:17:06.891Z,99.28
2018-06-29T01:18:06.874Z,99.33
2018-06-29T01:19:06.864Z,99.14
2018-06-29T01:20:06.895Z,99.43
2018-06-29T01:21:06.836Z,99.14
2018-06-29T01:22:09.850Z,99.99
2018-06-29T01:23:06.804Z,99.52
2018-06-29T01:24:06.806Z,99.52
2018-06-29T01:25:06.774Z,99.90
2018-06-29T01:26:06.808Z,99.43
2018-06-29T01:28:06.777Z,99.24
2018-06-29T01:29:06.816Z,99.24
2018-06-29T01:30:06.705Z,99.19
2018-06-29T01:31:06.683Z,99.28
2018-06-29T01:32:06.744Z,99.14
2018-06-29T01:33:06.659Z,98.23
2018-06-29T01:34:06.640Z,98.04
2018-06-29T01:35:06.628Z,97.56
2018-06-29T01:36:06.613Z,97.85
2018-06-29T01:37:06.620Z,97.47
2018-06-29T01:38:06.631Z,97.85
2018-06-29T01:40:06.643Z,98.42
2018-06-29T01:42:06.812Z,98.23
2018-06-29T01:43:06.500Z,99.38
2018-06-29T01:44:06.558Z,98.99
2018-06-29T01:45:06.572Z,99.19
2018-06-29T01:46:06.461Z,98.99
2018-06-29T01:47:06.550Z,98.99
2018-06-29T01:48:06.430Z,99.19
2018-06-29T01:49:06.417Z,98.99
2018-06-29T01:50:06.452Z,98.42
2018-06-29T01:51:06.408Z,98.99
2018-06-29T01:52:06.373Z,98.52
2018-06-29T01:53:06.351Z,98.13
2018-06-29T01:54:06.338Z,97.56
2018-06-29T01:55:06.373Z,97.47
2018-06-29T01:56:07.061Z,97.28
2018-06-29T01:57:06.286Z,97.37
2018-06-29T01:58:06.283Z,96.99
2018-06-29T01:59:06.274Z,97.18
2018-06-29T02:00:06.242Z,97.28
2018-06-29T02:01:06.229Z,96.84
2018-06-29T02:02:06.309Z,95.89
2018-06-29T02:03:06.295Z,96.75
2018-06-29T02:04:06.186Z,96.17
2018-06-29T02:05:06.168Z,96.17
2018-06-29T02:06:06.168Z,95.79
2018-06-29T02:07:06.135Z,96.37
2018-06-29T02:08:06.234Z,95.89
2018-06-29T02:09:06.110Z,96.37
2018-06-29T02:10:06.200Z,97.61
2018-06-29T02:11:06.075Z,97.08
2018-06-29T02:12:06.060Z,96.94
2018-06-29T02:13:06.045Z,96.94
2018-06-29T02:14:06.078Z,97.13
2018-06-29T02:16:06.003Z,96.56
2018-06-29T02:17:05.988Z,96.08
2018-06-29T02:18:05.972Z,96.46
2018-06-29T02:19:05.953Z,95.32
2018-06-29T02:20:05.988Z,95.41
2018-06-29T02:21:05.923Z,95.17
2018-06-29T02:22:05.910Z,94.98
2018-06-29T02:23:05.907Z,94.31
2018-06-29T02:24:05.875Z,93.65
2018-06-29T02:25:05.858Z,93.93
2018-06-29T02:26:05.899Z,94.51
2018-06-29T02:28:05.814Z,94.12
2018-06-29T02:29:05.804Z,93.74
2018-06-29T02:30:05.781Z,92.69
2018-06-29T02:31:05.769Z,92.41
2018-06-29T02:32:05.803Z,92.79
2018-06-29T02:33:05.738Z,93.07
2018-06-29T02:34:05.722Z,93.93
2018-06-29T02:35:05.705Z,94.12
2018-06-29T02:36:05.689Z,93.65
2018-06-29T02:37:05.679Z,93.74
2018-06-29T02:38:05.717Z,94.79
2018-06-29T02:39:05.640Z,94.31
2018-06-29T02:40:05.622Z,93.93
2018-06-29T02:41:05.609Z,93.84
2018-06-29T02:42:05.618Z,92.50
2018-06-29T02:44:05.611Z,92.69
2018-06-29T02:45:05.646Z,93.36
2018-06-29T02:46:05.533Z,93.17
2018-06-29T02:48:05.795Z,92.97
2018-06-29T02:49:05.602Z,93.36
2018-06-29T02:50:05.524Z,93.36
2018-06-29T02:51:05.446Z,93.07
2018-06-29T02:52:05.435Z,93.26
2018-06-29T02:53:05.419Z,93.26
2018-06-29T02:55:05.739Z,91.93
2018-06-29T02:56:05.423Z,91.74
2018-06-29T02:57:05.361Z,92.07
2018-06-29T02:58:05.376Z,92.02
2018-06-29T02:59:05.324Z,92.02
2018-06-29T03:00:05.320Z,92.41
2018-06-29T03:01:05.296Z,91.74
2018-06-29T03:02:05.327Z,91.31
2018-06-29T03:03:05.261Z,90.93
2018-06-29T03:04:05.241Z,90.50
2018-06-29T03:05:05.230Z,91.16
2018-06-29T03:06:05.217Z,91.36
2018-06-29T03:07:05.198Z,90.97
2018-06-29T03:08:05.234Z,91.74
2018-06-29T03:09:05.171Z,92.12
2018-06-29T03:11:05.218Z,94.51
2018-06-29T03:12:05.117Z,94.31
2018-06-29T03:14:05.384Z,93.65
2018-06-29T03:16:05.102Z,94.41
2018-06-29T03:18:05.019Z,94.03
2018-06-29T03:20:05.337Z,94.22
2018-06-29T03:22:04.979Z,93.17
2018-06-29T03:23:04.946Z,92.69
2018-06-29T03:24:04.924Z,93.26
2018-06-29T03:25:05.013Z,92.50
2018-06-29T03:26:04.941Z,92.83
2018-06-29T03:27:04.876Z,91.78
2018-06-29T03:28:04.867Z,91.98
2018-06-29T03:29:04.841Z,90.64
2018-06-29T03:30:04.929Z,89.78
2018-06-29T03:31:04.827Z,90.17
2018-06-29T03:32:04.844Z,89.69
2018-06-29T03:33:04.809Z,90.21
2018-06-29T03:34:04.764Z,91.93
2018-06-29T03:37:04.713Z,91.07
2018-06-29T03:40:05.023Z,91.55
2018-06-29T03:41:04.913Z,91.74
2018-06-29T03:44:04.600Z,92.97
2018-06-29T03:45:04.586Z,92.60
2018-06-29T03:46:04.628Z,93.17
2018-06-29T03:47:04.556Z,93.65
2018-06-29T03:48:04.541Z,94.12
2018-06-29T03:49:04.531Z,93.65
2018-06-29T03:50:04.507Z,92.88
2018-06-29T03:51:04.490Z,93.36
2018-06-29T03:52:04.526Z,92.88
2018-06-29T03:53:04.457Z,92.69
2018-06-29T03:54:04.445Z,92.31
2018-06-29T03:55:04.427Z,92.31
2018-06-29T03:56:04.411Z,92.69
2018-06-29T03:57:04.399Z,93.07
2018-06-29T03:58:04.426Z,92.50
2018-06-29T04:00:04.355Z,92.02
2018-06-29T04:01:04.382Z,92.21
2018-06-29T04:02:04.319Z,92.69
2018-06-29T04:03:04.302Z,92.88
2018-06-29T04:04:04.336Z,92.21
2018-06-29T04:05:04.369Z,92.16
2018-06-29T04:06:04.253Z,91.83
2018-06-29T04:07:04.237Z,92.93
2018-06-29T04:08:05.394Z,93.02
2018-06-29T04:09:04.211Z,93.41
2018-06-29T04:10:04.241Z,94.07
2018-06-29T04:11:04.171Z,93.31
2018-06-29T04:12:04.157Z,93.21
2018-06-29T04:13:04.138Z,92.55
2018-06-29T04:14:04.124Z,92.93
2018-06-29T04:15:04.115Z,93.12
2018-06-29T04:16:04.145Z,93.31
2018-06-29T04:17:04.317Z,92.45
2018-06-29T04:18:04.076Z,92.93
2018-06-29T04:19:04.054Z,91.97
2018-06-29T04:20:04.031Z,91.88
2018-06-29T04:21:04.019Z,92.74
2018-06-29T04:22:04.150Z,92.59
2018-06-29T04:24:04.070Z,93.16
2018-06-29T04:26:03.944Z,93.36
2018-06-29T04:27:03.922Z,92.40
2018-06-29T04:29:03.896Z,92.69
2018-06-29T04:30:03.877Z,91.93
2018-06-29T04:31:03.933Z,92.02
2018-06-29T04:32:03.850Z,91.35
2018-06-29T04:34:03.865Z,91.35
2018-06-29T04:35:03.798Z,92.02
2018-06-29T04:36:03.926Z,91.45
2018-06-29T04:37:03.904Z,91.88
2018-06-29T04:38:03.766Z,91.68
2018-06-29T04:39:03.740Z,91.97
2018-06-29T04:41:03.707Z,91.68
2018-06-29T04:42:03.794Z,93.02
2018-06-29T04:43:03.673Z,92.35
2018-06-29T04:44:03.662Z,92.88
2018-06-29T04:45:03.748Z,93.07
2018-06-29T04:46:03.681Z,94.12
2018-06-29T04:47:03.616Z,94.60
2018-06-29T04:48:03.762Z,95.36
2018-06-29T04:50:03.570Z,96.94
2018-06-29T04:51:03.555Z,96.47
2018-06-29T04:52:03.589Z,97.23
2018-06-29T04:53:03.525Z,97.75
2018-06-29T04:54:03.531Z,98.33
2018-06-29T04:55:03.495Z,97.85
2018-06-29T04:56:03.524Z,98.43
2018-06-29T04:57:03.467Z,97.75
2018-06-29T04:58:03.503Z,99.96
2018-06-29T04:59:03.456Z,99.99
2018-06-29T05:00:03.426Z,99.99
2018-06-29T05:01:03.561Z,99.99
2018-06-29T05:02:03.407Z,99.99
2018-06-29T05:03:03.570Z,99.99
2018-06-29T05:04:03.431Z,99.99
2018-06-29T05:05:03.363Z,99.99
2018-06-29T05:08:03.340Z,99.99
2018-06-29T05:09:03.300Z,99.99
2018-06-29T05:10:03.332Z,99.99
2018-06-29T05:12:03.318Z,99.99
2018-06-29T05:13:03.244Z,99.99
2018-06-29T05:14:03.225Z,99.99
2018-06-29T05:15:03.223Z,99.99
2018-06-29T05:16:03.248Z,99.99
2018-06-29T05:17:03.304Z,99.99
2018-06-29T05:18:03.176Z,99.99
2018-06-29T05:21:03.442Z,99.99
2018-06-29T05:22:03.377Z,99.99
2018-06-29T05:23:03.159Z,99.99
2018-06-29T05:24:03.097Z,99.99
2018-06-29T05:25:03.095Z,99.99
2018-06-29T05:28:03.395Z,99.99
2018-06-29T05:29:03.023Z,99.99
2018-06-29T05:32:03.004Z,99.99
2018-06-29T05:33:03.000Z,99.99
2018-06-29T05:34:03.016Z,99.99
2018-06-29T05:35:02.947Z,99.99
2018-06-29T05:36:02.935Z,99.99
2018-06-29T05:37:02.939Z,99.99
2018-06-29T05:38:02.932Z,99.99
2018-06-29T05:39:02.891Z,99.99
2018-06-29T05:40:02.938Z,99.99
2018-06-29T05:41:02.869Z,99.99
2018-06-29T05:42:02.856Z,99.99
2018-06-29T05:43:02.844Z,99.99
2018-06-29T05:44:02.852Z,99.99
2018-06-29T05:45:02.922Z,99.99
2018-06-29T05:47:03.171Z,99.99
2018-06-29T05:48:02.790Z,99.99
2018-06-29T05:49:02.769Z,99.99
2018-06-29T05:50:02.805Z,99.99
2018-06-29T05:51:02.800Z,99.99
2018-06-29T05:52:02.820Z,99.99
2018-06-29T05:53:03.438Z,99.99
2018-06-29T05:54:02.753Z,99.99
2018-06-29T05:55:02.714Z,99.99
2018-06-29T05:56:02.715Z,99.99
2018-06-29T05:58:03.017Z,99.99
2018-06-29T05:59:02.721Z,99.99
2018-06-29T06:00:02.714Z,99.99
2018-06-29T06:02:02.701Z,99.99
2018-06-29T06:03:02.715Z,99.99
2018-06-29T06:04:02.839Z,99.99
2018-06-29T06:05:02.930Z,99.99
2018-06-29T06:06:02.868Z,99.99
2018-06-29T06:08:02.537Z,99.99
2018-06-29T06:09:02.575Z,99.99
2018-06-29T06:10:03.025Z,99.99
2018-06-29T06:11:02.609Z,99.99
2018-06-29T06:12:04.208Z,99.99
2018-06-29T06:13:03.177Z,99.99
2018-06-29T06:14:02.903Z,99.99
2018-06-29T06:15:03.369Z,99.99
2018-06-29T06:16:02.905Z,99.98
2018-06-29T06:17:02.555Z,98.34
2018-06-29T06:18:02.724Z,97.67
2018-06-29T06:19:02.638Z,97.14
2018-06-29T06:20:02.669Z,97.62
2018-06-29T06:21:02.760Z,95.69
2018-06-29T06:24:02.756Z,96.56
2018-06-29T06:25:02.877Z,95.40
2018-06-29T06:26:02.327Z,94.34
2018-06-29T06:27:02.623Z,93.33
2018-06-29T06:28:02.976Z,91.02
2018-06-29T06:29:02.393Z,91.12
2018-06-29T06:30:03.348Z,89.29
2018-06-29T06:31:02.750Z,88.23
2018-06-29T06:33:02.256Z,87.07
2018-06-29T06:34:03.892Z,86.69
2018-06-29T06:35:02.315Z,86.59
2018-06-29T06:36:02.245Z,86.78
2018-06-29T06:37:02.336Z,86.88
2018-06-29T06:38:02.312Z,85.34
2018-06-29T06:39:02.229Z,86.01
2018-06-29T06:40:02.440Z,84.99
2018-06-29T06:41:02.325Z,83.74
2018-06-29T06:42:02.440Z,84.03
2018-06-29T06:43:02.569Z,85.19
2018-06-29T06:45:03.107Z,80.76
2018-06-29T06:46:02.744Z,81.52
2018-06-29T06:47:02.512Z,81.33
2018-06-29T06:50:02.822Z,78.44
2018-06-29T06:51:02.556Z,78.09
2018-06-29T06:52:02.070Z,80.69
2018-06-29T06:53:02.991Z,77.13
2018-06-29T06:54:02.735Z,79.74
2018-06-29T06:55:02.112Z,78.58
2018-06-29T06:56:02.110Z,76.36
2018-06-29T06:57:02.648Z,76.36
2018-06-29T06:58:02.381Z,76.26
2018-06-29T06:59:02.621Z,75.97
2018-06-29T07:00:02.197Z,76.45
2018-06-29T07:01:02.138Z,77.33
2018-06-29T07:02:02.524Z,77.42
2018-06-29T07:03:02.132Z,77.36
2018-06-29T07:04:01.991Z,78.23
2018-06-29T07:05:02.279Z,76.30
2018-06-29T07:06:02.181Z,73.99
2018-06-29T07:07:02.003Z,71.19
2018-06-29T07:08:02.688Z,72.34
2018-06-29T07:09:01.985Z,75.05
2018-06-29T07:10:01.958Z,72.15
2018-06-29T07:13:01.979Z,69.16
2018-06-29T07:14:02.157Z,67.75
2018-06-29T07:15:02.550Z,67.85
2018-06-29T09:55:31.981Z,37.83
2018-06-29T09:56:31.931Z,38.04
2018-06-29T09:57:31.936Z,35.69
2018-06-29T09:58:32.134Z,34.89
2018-06-29T09:59:32.136Z,36.38
2018-06-29T10:00:32.644Z,34.72
2018-06-29T10:01:32.122Z,33.92
2018-06-29T10:03:31.940Z,36.85
2018-06-29T10:04:31.942Z,38.20
2018-06-29T10:05:31.935Z,38.49
2018-06-29T10:06:45.026Z,37.81
2018-06-29T10:07:32.139Z,38.32
2018-06-29T10:08:31.942Z,38.49
2018-06-29T10:09:33.404Z,38.18
2018-06-29T10:10:31.990Z,38.18
2018-06-29T10:11:31.940Z,39.55
2018-06-29T10:12:32.461Z,39.26
2018-06-29T10:13:31.940Z,39.75
2018-06-29T10:14:32.049Z,39.18
2018-06-29T10:15:32.145Z,39.75
2018-06-29T10:16:32.599Z,38.51
2018-06-29T10:17:38.275Z,38.22
2018-06-29T10:18:31.947Z,35.46
2018-06-29T10:19:32.300Z,35.55
2018-06-29T10:20:31.955Z,35.55
2018-06-29T10:21:31.948Z,37.01
2018-06-29T10:22:32.391Z,37.21
2018-06-29T10:23:31.949Z,37.40
2018-06-29T10:24:31.957Z,38.98
2018-06-29T10:25:32.347Z,38.61
2018-06-29T10:26:31.958Z,35.09
2018-06-29T10:28:33.420Z,36.98
2018-06-29T10:29:31.951Z,36.38
2018-06-29T10:30:31.953Z,36.75
2018-06-29T10:31:32.864Z,37.63
2018-06-29T10:32:31.954Z,38.69
2018-06-29T10:33:32.216Z,38.82
2018-06-29T10:34:32.566Z,38.45
2018-06-29T10:36:32.165Z,34.42
2018-06-29T10:37:32.304Z,35.38
2018-06-29T10:38:31.964Z,36.54
2018-06-29T10:39:32.622Z,37.54
2018-06-29T10:40:31.969Z,38.82
2018-06-29T10:41:32.050Z,40.08
2018-06-29T10:42:31.968Z,39.78
2018-06-29T10:43:33.687Z,40.97
2018-06-29T10:44:32.022Z,39.80
2018-06-29T10:45:32.024Z,40.33
2018-06-29T10:46:31.986Z,39.54
2018-06-29T10:47:31.992Z,40.14
2018-06-29T10:49:32.281Z,40.70
2018-06-29T10:50:31.982Z,39.82
2018-06-29T10:51:32.056Z,40.82
2018-06-29T10:53:31.994Z,39.22
2018-06-29T10:54:31.989Z,41.29
2018-06-29T10:55:32.292Z,40.80
2018-06-29T10:56:31.992Z,40.97
2018-06-29T10:57:32.345Z,40.86
2018-06-29T10:58:32.056Z,41.36
2018-06-29T10:59:31.998Z,39.90
2018-06-29T11:00:32.003Z,40.80
2018-06-29T11:01:32.002Z,40.90
2018-06-29T11:02:32.010Z,40.97
2018-06-29T11:03:32.082Z,40.88
2018-06-29T11:04:32.009Z,40.76
2018-06-29T11:05:32.128Z,42.54
2018-06-29T11:06:38.277Z,40.90
2018-06-29T11:07:32.519Z,39.54
2018-06-29T11:08:32.017Z,39.80
2018-06-29T11:09:32.681Z,42.58
2018-06-29T11:10:32.019Z,43.87
2018-06-29T11:11:32.026Z,42.30
2018-06-29T11:12:32.022Z,42.52
2018-06-29T11:13:32.072Z,42.40
2018-06-29T11:14:32.033Z,44.09
2018-06-29T11:15:38.307Z,43.65
2018-06-29T11:16:32.229Z,42.30
2018-06-29T11:17:32.033Z,42.01
2018-06-29T11:18:58.003Z,41.66
2018-06-29T11:19:32.077Z,42.05
2018-06-29T11:20:32.081Z,41.60
2018-06-29T11:21:32.033Z,40.21
2018-06-29T11:22:32.086Z,40.21
2018-06-29T11:23:32.036Z,41.05
2018-06-29T11:24:32.338Z,42.60
2018-06-29T11:25:32.040Z,41.83
2018-06-29T11:26:32.094Z,41.74
2018-06-29T11:27:32.043Z,41.13
2018-06-29T11:28:32.047Z,41.93
2018-06-29T11:29:32.054Z,41.74
2018-06-29T11:30:32.359Z,41.31
2018-06-29T11:31:32.100Z,41.31
2018-06-29T11:32:32.661Z,42.38
2018-06-29T11:33:32.058Z,43.65
2018-06-29T11:34:32.052Z,44.38
2018-06-29T11:35:32.064Z,44.07
2018-06-29T11:36:32.357Z,43.41
2018-06-29T11:37:32.110Z,42.44
2018-06-29T11:38:32.106Z,43.85
2018-06-29T11:39:32.061Z,42.51
2018-06-29T11:40:32.076Z,41.60
2018-06-29T11:41:32.060Z,38.98
2018-06-29T11:42:32.097Z,39.65
2018-06-29T11:43:32.362Z,39.84
2018-06-29T11:44:32.414Z,39.23
2018-06-29T11:45:32.064Z,40.97
2018-06-29T11:46:32.059Z,41.54
2018-06-29T11:47:32.061Z,42.80
2018-06-29T11:48:33.482Z,42.34
2018-06-29T11:49:32.358Z,41.28
2018-06-29T11:50:32.108Z,43.71
2018-06-29T11:51:32.923Z,44.85
2018-06-29T11:52:32.057Z,45.71
2018-06-29T11:53:35.089Z,44.27
2018-06-29T11:54:32.056Z,43.90
2018-06-29T11:55:32.356Z,42.55
2018-06-29T11:56:32.106Z,41.99
2018-06-29T11:57:32.054Z,41.54
2018-06-29T11:58:32.055Z,41.17
2018-06-29T11:59:33.466Z,39.70
2018-06-29T12:00:33.499Z,40.90
2018-06-29T12:01:33.768Z,39.61
2018-06-29T12:02:32.098Z,39.80
2018-06-29T12:03:32.045Z,39.33
2018-06-29T12:04:32.057Z,41.00
2018-06-29T12:05:32.249Z,39.23
2018-06-29T12:06:32.096Z,39.43
2018-06-29T12:07:32.369Z,38.53
2018-06-29T12:08:32.053Z,38.34
2018-06-29T12:09:38.346Z,39.72
2018-06-29T12:10:32.051Z,41.09
2018-06-29T12:11:32.066Z,38.75
2018-06-29T12:12:32.109Z,38.45
2018-06-29T12:13:32.049Z,38.57
2018-06-29T12:14:32.066Z,38.76
2018-06-29T12:15:32.054Z,38.88
2018-06-29T12:16:32.048Z,38.29
2018-06-29T12:17:32.056Z,36.72
2018-06-29T12:18:32.102Z,37.13
2018-06-29T12:19:32.354Z,39.00
2018-06-29T12:20:32.053Z,38.23
2018-06-29T12:21:32.062Z,37.05
2018-06-29T12:22:32.061Z,37.13
2018-06-29T12:23:32.057Z,36.06
2018-06-29T12:24:32.429Z,36.66
2018-06-29T12:25:32.444Z,35.33
2018-06-29T12:26:32.087Z,35.60
2018-06-29T12:27:32.057Z,36.09
2018-06-29T12:28:32.068Z,34.92
2018-06-29T12:29:32.072Z,36.09
2018-06-29T12:30:32.115Z,34.01
2018-06-29T12:31:32.367Z,34.61
2018-06-29T12:32:32.064Z,34.67
2018-06-29T12:33:32.070Z,34.84
2018-06-29T12:34:32.067Z,34.44
2018-06-29T12:35:32.116Z,36.10
2018-06-29T12:36:32.071Z,36.80
2018-06-29T12:37:32.369Z,39.17
2018-06-29T12:38:32.079Z,37.71
2018-06-29T12:39:32.071Z,37.51
2018-06-29T12:40:32.078Z,37.71
2018-06-29T12:41:32.126Z,36.45
2018-06-29T12:42:32.073Z,37.23
2018-06-29T12:43:32.083Z,37.33
2018-06-29T12:44:32.376Z,37.79
2018-06-29T12:45:32.082Z,38.49
2018-06-29T12:46:32.080Z,38.20
2018-06-29T12:47:32.137Z,39.41
2018-06-29T12:48:32.080Z,38.23
2018-06-29T12:49:32.088Z,38.80
2018-06-29T12:50:32.085Z,38.04
2018-06-29T12:51:32.443Z,38.33
2018-06-29T12:52:32.094Z,39.35
2018-06-29T12:53:32.154Z,39.56
2018-06-29T12:54:32.103Z,39.94
2018-06-29T12:55:32.108Z,39.39
2018-06-29T12:56:32.113Z,38.78
2018-06-29T12:57:32.410Z,39.98
2018-06-29T12:58:32.190Z,39.69
2018-06-29T12:59:32.105Z,39.39
2018-06-29T13:00:32.106Z,39.84
2018-06-29T13:01:32.106Z,41.02
2018-06-29T13:02:32.108Z,41.39
2018-06-29T13:03:33.822Z,41.21
2018-06-29T13:04:32.159Z,42.27
2018-06-29T13:05:32.319Z,43.07
2018-06-29T13:06:32.112Z,42.05
2018-06-29T13:07:32.725Z,41.56
2018-06-29T13:08:32.125Z,42.85
2018-06-29T13:09:32.426Z,41.89
2018-06-29T13:10:32.173Z,41.78
2018-06-29T13:11:32.128Z,40.92
2018-06-29T13:12:32.126Z,41.29
2018-06-29T13:13:32.130Z,41.50
2018-06-29T13:14:32.129Z,40.25
2018-06-29T13:15:32.433Z,40.19
2018-06-29T13:16:32.182Z,41.25
2018-06-29T13:17:32.133Z,41.55
2018-06-29T13:18:32.138Z,40.76
2018-06-29T13:19:32.145Z,40.61
2018-06-29T13:20:32.139Z,39.84
2018-06-29T13:21:32.443Z,39.35
2018-06-29T13:22:32.493Z,40.00
2018-06-29T13:23:33.559Z,43.29
2018-06-29T13:24:32.754Z,42.50
2018-06-29T13:25:32.199Z,44.07
2018-06-29T13:26:32.151Z,42.50
2018-06-29T13:27:32.656Z,42.56
2018-06-29T13:28:32.772Z,44.46
2018-06-29T13:29:33.573Z,43.99
2018-06-29T13:30:33.585Z,40.95
2018-06-29T13:31:33.630Z,40.86
2018-06-29T13:32:33.585Z,41.82
2018-06-29T13:33:32.670Z,41.02
2018-06-29T13:34:32.367Z,41.89
2018-06-29T13:35:32.173Z,42.90
2018-06-29T13:36:32.776Z,42.23
2018-06-29T13:37:32.221Z,41.03
2018-06-29T13:38:33.603Z,41.72
2018-06-29T13:39:32.484Z,42.91
2018-06-29T13:40:32.178Z,42.66
2018-06-29T13:41:32.185Z,39.70
2018-06-29T13:42:32.183Z,40.01
2018-06-29T13:43:32.233Z,40.31
2018-06-29T13:44:32.222Z,42.18
2018-06-29T13:45:32.506Z,41.96
2018-06-29T13:46:32.283Z,41.47
2018-06-29T13:47:32.202Z,43.05
2018-06-29T13:48:32.195Z,40.82
2018-06-29T13:49:32.267Z,42.37
2018-06-29T13:50:32.246Z,40.90
2018-06-29T13:51:32.203Z,41.66
2018-06-29T13:52:32.199Z,41.17
2018-06-29T13:53:32.209Z,41.74
2018-06-29T13:54:32.205Z,41.76
2018-06-29T13:55:32.410Z,43.74
2018-06-29T13:56:32.258Z,40.90
2018-06-29T13:57:32.264Z,39.90
2018-06-29T13:58:32.224Z,42.65
2018-06-29T13:59:32.218Z,41.52
2018-06-29T14:00:32.841Z,43.52
2018-06-29T14:01:32.219Z,40.80
2018-06-29T14:02:32.950Z,40.78
2018-06-29T14:03:32.223Z,42.35
2018-06-29T14:04:32.231Z,41.08
2018-06-29T14:05:32.226Z,40.95
2018-06-29T14:06:32.228Z,43.12
2018-06-29T14:07:32.442Z,43.82
2018-06-29T14:08:32.283Z,41.74
2018-06-29T14:09:32.537Z,42.65
2018-06-29T14:10:32.238Z,41.47
2018-06-29T14:11:32.309Z,42.08
2018-06-29T14:12:32.252Z,41.17
2018-06-29T14:13:32.247Z,40.94
2018-06-29T14:14:32.297Z,44.19
2018-06-29T14:15:32.551Z,44.51
2018-06-29T14:16:35.305Z,41.56
2018-06-29T14:17:33.671Z,42.65
2018-06-29T14:18:32.258Z,42.35
2018-06-29T14:19:32.313Z,41.86
2018-06-29T14:20:32.259Z,41.68
2018-06-29T14:21:32.265Z,41.00
2018-06-29T14:22:32.567Z,41.90
2018-06-29T14:23:32.269Z,42.71
2018-06-29T14:24:45.357Z,41.29
2018-06-29T14:25:32.274Z,41.35
2018-06-29T14:26:32.277Z,42.43
2018-06-29T14:27:32.287Z,43.29
2018-06-29T14:28:32.580Z,42.60
2018-06-29T14:29:32.281Z,43.48
2018-06-29T14:30:32.333Z,44.07
2018-06-29T14:31:32.285Z,43.73
2018-06-29T14:32:32.288Z,45.40
2018-06-29T14:33:32.295Z,44.56
2018-06-29T14:34:32.598Z,43.80
2018-06-29T14:35:32.313Z,43.02
2018-06-29T14:36:32.358Z,43.29
2018-06-29T14:37:32.300Z,44.24
2018-06-29T14:38:32.303Z,44.66
2018-06-29T14:39:32.305Z,42.85
2018-06-29T14:40:32.606Z,44.20
2018-06-29T14:41:32.371Z,45.47
2018-06-29T14:42:32.310Z,44.98
2018-06-29T14:43:32.917Z,44.96
2018-06-29T14:44:32.314Z,45.84
2018-06-29T14:45:32.313Z,45.75
2018-06-29T14:46:32.651Z,44.87
2018-06-29T14:47:32.667Z,47.21
2018-06-29T14:48:32.320Z,46.21
2018-06-29T14:49:32.343Z,45.92
2018-06-29T14:50:32.321Z,46.48
2018-06-29T14:51:32.320Z,45.78
2018-06-29T14:52:32.624Z,47.46
2018-06-29T14:53:32.382Z,44.94
2018-06-29T14:54:32.326Z,44.74
2018-06-29T14:55:32.328Z,43.89
2018-06-29T14:56:32.327Z,44.48
2018-06-29T14:57:45.066Z,44.40
2018-06-29T14:58:32.627Z,44.30
2018-06-29T14:59:32.328Z,44.89
2018-06-29T15:00:32.334Z,44.81
2018-06-29T15:01:32.535Z,44.20
2018-06-29T15:02:32.533Z,44.69
2018-06-29T15:03:32.330Z,45.04
2018-06-29T15:04:32.393Z,45.45
2018-06-29T15:05:32.357Z,44.49
2018-06-29T15:06:32.334Z,44.40
2018-06-29T15:07:32.336Z,44.96
2018-06-29T15:08:32.339Z,44.96
2018-06-29T15:09:32.453Z,45.06
2018-06-29T15:10:32.349Z,45.72
2018-06-29T15:11:32.337Z,45.80
2018-06-29T15:12:32.336Z,47.27
2018-06-29T15:13:32.337Z,47.34
2018-06-29T15:14:32.343Z,47.66
2018-06-29T15:15:32.389Z,47.28
2018-06-29T15:16:32.662Z,47.11
2018-06-29T15:17:32.342Z,45.94
2018-06-29T15:18:32.342Z,46.23
2018-06-29T15:19:32.340Z,47.41
2018-06-29T15:20:32.341Z,48.80
2018-06-29T15:21:32.415Z,48.58
2018-06-29T15:22:32.338Z,48.97
2018-06-29T15:23:32.338Z,49.34
2018-06-29T15:24:33.766Z,49.05
2018-06-29T15:25:32.343Z,49.93
2018-06-29T15:26:32.945Z,49.07
2018-06-29T15:27:32.488Z,50.04
2018-06-29T15:28:32.339Z,49.63
2018-06-29T15:29:32.541Z,50.19
2018-06-29T15:30:32.340Z,50.70
2018-06-29T15:31:32.633Z,50.75
2018-06-29T15:32:32.338Z,48.02
2018-06-29T15:33:32.444Z,47.63
2018-06-29T15:34:32.547Z,48.75
2018-06-29T15:35:32.639Z,46.17
2018-06-29T15:36:32.334Z,47.63
2018-06-29T15:37:32.334Z,48.83
2018-06-29T15:38:32.385Z,47.97
2018-06-29T15:39:32.359Z,47.58
2018-06-29T15:40:32.352Z,48.16
2018-06-29T15:41:32.638Z,46.95
2018-06-29T15:42:32.337Z,47.58
2018-06-29T15:43:35.402Z,48.66
2018-06-29T15:44:32.683Z,49.44
2018-06-29T15:45:32.338Z,51.12
2018-06-29T15:46:32.352Z,50.14
2018-06-29T15:47:32.630Z,48.97
2018-06-29T15:48:32.334Z,49.78
2018-06-29T15:49:32.349Z,49.39
2018-06-29T15:50:32.379Z,47.34
2018-06-29T15:51:32.327Z,48.51
2018-06-29T15:52:32.333Z,48.24
2018-06-29T15:53:32.326Z,46.97
2018-06-29T15:54:51.833Z,47.67
2018-06-29T15:55:32.330Z,46.89
2018-06-29T15:56:35.478Z,45.43
2018-06-29T15:57:35.361Z,45.90
2018-06-29T15:58:35.359Z,46.48
2018-06-29T16:00:32.636Z,49.07
2018-06-29T16:01:32.446Z,48.02
2018-06-29T16:02:32.325Z,47.27
2018-06-29T16:03:32.328Z,47.66
2018-06-29T16:04:32.333Z,45.90
2018-06-29T16:05:32.325Z,47.46
2018-06-29T16:06:35.679Z,47.85
2018-06-29T16:07:33.296Z,49.14
2018-06-29T16:08:32.356Z,47.67
2018-06-29T16:09:32.329Z,46.48
2018-06-29T16:10:32.342Z,48.61
2018-06-29T16:11:32.326Z,47.05
2018-06-29T16:12:32.327Z,48.58
2018-06-29T16:13:32.699Z,48.58
2018-06-29T16:14:32.552Z,48.66
2018-06-29T16:15:32.580Z,49.76
2018-06-29T16:16:32.357Z,48.56
2018-06-29T16:17:32.334Z,49.15
2018-06-29T16:18:32.391Z,49.39
2018-06-29T16:19:32.660Z,48.90
2018-06-29T16:20:32.382Z,47.95
2018-06-29T16:21:32.338Z,48.73
2018-06-29T16:22:32.598Z,48.55
2018-06-29T16:23:32.546Z,49.24
2018-06-29T16:24:36.925Z,49.26
2018-06-29T16:25:32.332Z,48.34
2018-06-29T16:26:32.547Z,48.80
2018-06-29T16:27:33.407Z,49.10
2018-06-29T16:28:32.337Z,50.95
2018-06-29T16:29:32.425Z,51.63
2018-06-29T16:30:32.684Z,51.66
2018-06-29T16:31:32.352Z,52.44
2018-06-29T16:32:32.348Z,51.68
2018-06-29T16:33:32.966Z,51.00
2018-06-29T16:34:32.560Z,50.29
2018-06-29T16:35:32.453Z,51.66
2018-06-29T16:36:32.660Z,51.27
2018-06-29T16:37:32.405Z,51.66
2018-06-29T16:38:32.356Z,50.95
2018-06-29T16:39:32.555Z,52.41
2018-06-29T16:40:32.364Z,51.92
2018-06-29T16:41:33.864Z,52.22
2018-06-29T16:42:32.641Z,51.73